sensor_id;sensor_type;location;lat;lon;timestamp;temperature;humidity
1948;DHT22;974;52.400;9.818;2023-06-10T00:00:11;16.80;99.90
1948;DHT22;974;52.400;9.818;2023-06-10T00:02:38;16.70;99.90
1948;DHT22;974;52.400;9.818;2023-06-10T00:05:04;16.60;99.90
1948;DHT22;974;52.400;9.818;2023-06-10T00:07:30;16.60;99.90
1948;DHT22;974;52.400;9.818;2023-06-10T00:09:55;16.50;99.90
1948;DHT22;974;52.400;9.818;2023-06-10T00:12:21;16.50;99.90
1948;DHT22;974;52.400;9.818;2023-06-10T00:14:46;16.50;99.90
1948;DHT22;974;52.400;9.818;2023-06-10T00:17:13;16.40;99.90
1948;DHT22;974;52.400;9.818;2023-06-10T00:19:40;16.40;99.90
1948;DHT22;974;52.400;9.818;2023-06-10T00:22:06;16.40;99.90
1948;DHT22;974;52.400;9.818;2023-06-10T00:24:31;16.40;99.90
1948;DHT22;974;52.400;9.818;2023-06-10T00:26:57;16.30;99.90
1948;DHT22;974;52.400;9.818;2023-06-10T00:29:22;16.30;99.90
1948;DHT22;974;52.400;9.818;2023-06-10T00:31:48;16.20;99.90
1948;DHT22;974;52.400;9.818;2023-06-10T00:34:13;16.20;99.90
1948;DHT22;974;52.400;9.818;2023-06-10T00:36:39;16.20;99.90
1948;DHT22;974;52.400;9.818;2023-06-10T00:39:04;16.20;99.90
1948;DHT22;974;52.400;9.818;2023-06-10T00:41:30;16.00;99.90
1948;DHT22;974;52.400;9.818;2023-06-10T00:43:56;16.00;99.90
1948;DHT22;974;52.400;9.818;2023-06-10T00:46:23;15.90;99.90
1948;DHT22;974;52.400;9.818;2023-06-10T00:48:50;15.90;99.90
1948;DHT22;974;52.400;9.818;2023-06-10T00:51:16;15.90;99.90
1948;DHT22;974;52.400;9.818;2023-06-10T00:53:42;15.80;99.90
1948;DHT22;974;52.400;9.818;2023-06-10T00:56:08;15.80;99.90
1948;DHT22;974;52.400;9.818;2023-06-10T00:58:34;15.70;99.90
1948;DHT22;974;52.400;9.818;2023-06-10T01:01:01;15.70;99.90
1948;DHT22;974;52.400;9.818;2023-06-10T01:03:27;15.60;99.90
1948;DHT22;974;52.400;9.818;2023-06-10T01:06:26;15.60;99.90
1948;DHT22;974;52.400;9.818;2023-06-10T01:09:02;15.60;99.90
1948;DHT22;974;52.400;9.818;2023-06-10T01:11:47;15.60;99.90
1948;DHT22;974;52.400;9.818;2023-06-10T01:14:13;15.60;99.90
1948;DHT22;974;52.400;9.818;2023-06-10T01:16:39;15.60;99.90
1948;DHT22;974;52.400;9.818;2023-06-10T01:19:06;15.50;99.90
1948;DHT22;974;52.400;9.818;2023-06-10T01:21:32;15.50;99.90
1948;DHT22;974;52.400;9.818;2023-06-10T01:23:58;15.40;99.90
1948;DHT22;974;52.400;9.818;2023-06-10T01:26:32;15.40;99.90
1948;DHT22;974;52.400;9.818;2023-06-10T01:29:05;15.40;99.90
1948;DHT22;974;52.400;9.818;2023-06-10T01:31:52;15.40;99.90
1948;DHT22;974;52.400;9.818;2023-06-10T01:34:23;15.30;99.90
1948;DHT22;974;52.400;9.818;2023-06-10T01:36:49;15.30;99.90
1948;DHT22;974;52.400;9.818;2023-06-10T01:39:17;15.20;99.90
1948;DHT22;974;52.400;9.818;2023-06-10T01:41:45;15.20;99.90
1948;DHT22;974;52.400;9.818;2023-06-10T01:44:11;15.10;99.90
1948;DHT22;974;52.400;9.818;2023-06-10T01:46:36;15.10;99.90
1948;DHT22;974;52.400;9.818;2023-06-10T01:49:02;15.00;99.90
1948;DHT22;974;52.400;9.818;2023-06-10T01:51:27;14.90;99.90
1948;DHT22;974;52.400;9.818;2023-06-10T01:53:53;14.90;99.90
1948;DHT22;974;52.400;9.818;2023-06-10T01:56:18;14.90;99.90
1948;DHT22;974;52.400;9.818;2023-06-10T01:58:46;14.70;99.90
1948;DHT22;974;52.400;9.818;2023-06-10T02:01:11;14.80;99.90
1948;DHT22;974;52.400;9.818;2023-06-10T02:03:37;14.80;99.90
1948;DHT22;974;52.400;9.818;2023-06-10T02:06:02;14.70;99.90
1948;DHT22;974;52.400;9.818;2023-06-10T02:08:28;14.80;99.90
1948;DHT22;974;52.400;9.818;2023-06-10T02:10:54;14.70;99.90
1948;DHT22;974;52.400;9.818;2023-06-10T02:13:19;14.60;99.90
1948;DHT22;974;52.400;9.818;2023-06-10T02:15:45;14.60;99.90
1948;DHT22;974;52.400;9.818;2023-06-10T02:18:10;14.50;99.90
1948;DHT22;974;52.400;9.818;2023-06-10T02:20:37;14.50;99.90
1948;DHT22;974;52.400;9.818;2023-06-10T02:23:03;14.50;99.90
1948;DHT22;974;52.400;9.818;2023-06-10T02:25:29;14.40;99.90
1948;DHT22;974;52.400;9.818;2023-06-10T02:27:54;14.40;99.90
1948;DHT22;974;52.400;9.818;2023-06-10T02:30:20;14.20;99.90
1948;DHT22;974;52.400;9.818;2023-06-10T02:32:45;14.30;99.90
1948;DHT22;974;52.400;9.818;2023-06-10T02:35:14;14.20;99.90
1948;DHT22;974;52.400;9.818;2023-06-10T02:37:39;14.20;99.90
1948;DHT22;974;52.400;9.818;2023-06-10T02:40:06;14.10;99.90
1948;DHT22;974;52.400;9.818;2023-06-10T02:42:34;14.00;99.90
1948;DHT22;974;52.400;9.818;2023-06-10T02:44:59;14.00;99.90
1948;DHT22;974;52.400;9.818;2023-06-10T02:47:26;14.00;99.90
1948;DHT22;974;52.400;9.818;2023-06-10T02:49:51;14.00;99.90
1948;DHT22;974;52.400;9.818;2023-06-10T02:52:17;13.90;99.90
1948;DHT22;974;52.400;9.818;2023-06-10T02:54:42;13.90;99.90
1948;DHT22;974;52.400;9.818;2023-06-10T02:57:08;13.90;99.90
1948;DHT22;974;52.400;9.818;2023-06-10T02:59:35;13.90;99.90
1948;DHT22;974;52.400;9.818;2023-06-10T03:02:00;13.80;99.90
1948;DHT22;974;52.400;9.818;2023-06-10T03:04:26;13.80;99.90
1948;DHT22;974;52.400;9.818;2023-06-10T03:06:54;13.70;99.90
1948;DHT22;974;52.400;9.818;2023-06-10T03:09:20;13.80;99.90
1948;DHT22;974;52.400;9.818;2023-06-10T03:11:45;13.80;99.90
1948;DHT22;974;52.400;9.818;2023-06-10T03:14:11;13.80;99.90
1948;DHT22;974;52.400;9.818;2023-06-10T03:16:36;13.70;99.90
1948;DHT22;974;52.400;9.818;2023-06-10T03:19:06;13.70;99.90
1948;DHT22;974;52.400;9.818;2023-06-10T03:21:31;13.70;99.90
1948;DHT22;974;52.400;9.818;2023-06-10T03:23:57;13.70;99.90
1948;DHT22;974;52.400;9.818;2023-06-10T03:26:22;13.70;99.90
1948;DHT22;974;52.400;9.818;2023-06-10T03:28:48;13.70;99.90
1948;DHT22;974;52.400;9.818;2023-06-10T03:31:14;13.60;99.90
1948;DHT22;974;52.400;9.818;2023-06-10T03:33:42;13.50;99.90
1948;DHT22;974;52.400;9.818;2023-06-10T03:36:07;13.50;99.90
1948;DHT22;974;52.400;9.818;2023-06-10T03:38:33;13.50;99.90
1948;DHT22;974;52.400;9.818;2023-06-10T03:40:58;13.40;99.90
1948;DHT22;974;52.400;9.818;2023-06-10T03:43:24;13.40;99.90
1948;DHT22;974;52.400;9.818;2023-06-10T03:45:49;13.50;99.90
1948;DHT22;974;52.400;9.818;2023-06-10T03:48:15;13.50;99.90
1948;DHT22;974;52.400;9.818;2023-06-10T03:50:40;13.50;99.90
1948;DHT22;974;52.400;9.818;2023-06-10T03:53:06;13.40;99.90
1948;DHT22;974;52.400;9.818;2023-06-10T03:55:31;13.40;99.90
1948;DHT22;974;52.400;9.818;2023-06-10T03:57:57;13.40;99.90
1948;DHT22;974;52.400;9.818;2023-06-10T04:00:23;13.40;99.90
1948;DHT22;974;52.400;9.818;2023-06-10T04:02:48;13.40;99.90
1948;DHT22;974;52.400;9.818;2023-06-10T04:05:17;13.40;99.90
1948;DHT22;974;52.400;9.818;2023-06-10T04:07:43;13.50;99.90
1948;DHT22;974;52.400;9.818;2023-06-10T04:10:10;13.50;99.90
1948;DHT22;974;52.400;9.818;2023-06-10T04:12:36;13.50;99.90
1948;DHT22;974;52.400;9.818;2023-06-10T04:15:03;13.50;99.90
1948;DHT22;974;52.400;9.818;2023-06-10T04:17:28;13.50;99.90
1948;DHT22;974;52.400;9.818;2023-06-10T04:19:54;13.50;99.90
1948;DHT22;974;52.400;9.818;2023-06-10T04:22:20;13.60;99.90
1948;DHT22;974;52.400;9.818;2023-06-10T04:24:46;13.80;99.90
1948;DHT22;974;52.400;9.818;2023-06-10T04:27:11;13.70;99.90
1948;DHT22;974;52.400;9.818;2023-06-10T04:29:37;13.70;99.90
1948;DHT22;974;52.400;9.818;2023-06-10T04:32:03;13.80;99.90
1948;DHT22;974;52.400;9.818;2023-06-10T04:34:30;13.80;99.90
1948;DHT22;974;52.400;9.818;2023-06-10T04:36:56;13.90;99.90
1948;DHT22;974;52.400;9.818;2023-06-10T04:39:22;13.90;99.90
1948;DHT22;974;52.400;9.818;2023-06-10T04:41:47;13.90;99.90
1948;DHT22;974;52.400;9.818;2023-06-10T04:44:13;13.90;99.90
1948;DHT22;974;52.400;9.818;2023-06-10T04:46:39;13.80;99.90
1948;DHT22;974;52.400;9.818;2023-06-10T04:49:04;13.90;99.90
1948;DHT22;974;52.400;9.818;2023-06-10T04:51:30;13.80;99.90
1948;DHT22;974;52.400;9.818;2023-06-10T04:53:57;13.80;99.90
1948;DHT22;974;52.400;9.818;2023-06-10T04:56:22;13.90;99.90
1948;DHT22;974;52.400;9.818;2023-06-10T04:58:48;14.00;99.90
1948;DHT22;974;52.400;9.818;2023-06-10T05:01:13;14.00;99.90
1948;DHT22;974;52.400;9.818;2023-06-10T05:03:39;14.10;99.90
1948;DHT22;974;52.400;9.818;2023-06-10T05:06:04;14.20;99.90
1948;DHT22;974;52.400;9.818;2023-06-10T05:08:30;14.20;99.90
1948;DHT22;974;52.400;9.818;2023-06-10T05:10:55;14.20;99.90
1948;DHT22;974;52.400;9.818;2023-06-10T05:13:21;14.20;99.90
1948;DHT22;974;52.400;9.818;2023-06-10T05:15:46;14.30;99.90
1948;DHT22;974;52.400;9.818;2023-06-10T05:18:12;14.30;99.90
1948;DHT22;974;52.400;9.818;2023-06-10T05:20:38;14.30;99.90
1948;DHT22;974;52.400;9.818;2023-06-10T05:23:03;14.20;99.90
1948;DHT22;974;52.400;9.818;2023-06-10T05:25:30;14.20;99.90
1948;DHT22;974;52.400;9.818;2023-06-10T05:27:58;14.30;99.90
1948;DHT22;974;52.400;9.818;2023-06-10T05:30:23;14.30;99.90
1948;DHT22;974;52.400;9.818;2023-06-10T05:32:50;14.30;99.90
1948;DHT22;974;52.400;9.818;2023-06-10T05:35:16;14.40;99.90
1948;DHT22;974;52.400;9.818;2023-06-10T05:37:42;14.40;99.90
1948;DHT22;974;52.400;9.818;2023-06-10T05:40:09;14.40;99.90
1948;DHT22;974;52.400;9.818;2023-06-10T05:42:34;14.40;99.90
1948;DHT22;974;52.400;9.818;2023-06-10T05:45:00;14.40;99.90
1948;DHT22;974;52.400;9.818;2023-06-10T05:47:25;14.50;99.90
1948;DHT22;974;52.400;9.818;2023-06-10T05:49:51;14.50;99.90
1948;DHT22;974;52.400;9.818;2023-06-10T05:52:17;14.50;99.90
1948;DHT22;974;52.400;9.818;2023-06-10T05:54:43;14.40;99.90
1948;DHT22;974;52.400;9.818;2023-06-10T05:57:08;14.40;99.90
1948;DHT22;974;52.400;9.818;2023-06-10T05:59:34;14.40;99.90
1948;DHT22;974;52.400;9.818;2023-06-10T06:01:59;14.50;99.90
1948;DHT22;974;52.400;9.818;2023-06-10T06:04:25;14.60;99.90
1948;DHT22;974;52.400;9.818;2023-06-10T06:06:50;14.70;99.90
1948;DHT22;974;52.400;9.818;2023-06-10T06:09:16;14.70;99.90
1948;DHT22;974;52.400;9.818;2023-06-10T06:11:41;14.80;99.90
1948;DHT22;974;52.400;9.818;2023-06-10T06:14:07;14.80;99.90
1948;DHT22;974;52.400;9.818;2023-06-10T06:16:32;14.80;99.90
1948;DHT22;974;52.400;9.818;2023-06-10T06:18:58;14.90;99.90
1948;DHT22;974;52.400;9.818;2023-06-10T06:21:24;14.90;99.90
1948;DHT22;974;52.400;9.818;2023-06-10T06:23:49;15.00;99.90
1948;DHT22;974;52.400;9.818;2023-06-10T06:26:15;15.00;99.90
1948;DHT22;974;52.400;9.818;2023-06-10T06:28:40;15.10;99.90
1948;DHT22;974;52.400;9.818;2023-06-10T06:31:06;15.20;99.90
1948;DHT22;974;52.400;9.818;2023-06-10T06:33:32;15.20;99.90
1948;DHT22;974;52.400;9.818;2023-06-10T06:35:57;15.30;99.90
1948;DHT22;974;52.400;9.818;2023-06-10T06:38:25;15.30;99.90
1948;DHT22;974;52.400;9.818;2023-06-10T06:40:51;15.40;99.90
1948;DHT22;974;52.400;9.818;2023-06-10T06:43:16;15.50;99.90
1948;DHT22;974;52.400;9.818;2023-06-10T06:45:44;15.50;99.90
1948;DHT22;974;52.400;9.818;2023-06-10T06:48:10;15.50;99.90
1948;DHT22;974;52.400;9.818;2023-06-10T06:50:36;15.60;99.90
1948;DHT22;974;52.400;9.818;2023-06-10T06:53:02;15.60;99.90
1948;DHT22;974;52.400;9.818;2023-06-10T06:55:27;15.50;99.90
1948;DHT22;974;52.400;9.818;2023-06-10T06:57:53;15.60;99.90
1948;DHT22;974;52.400;9.818;2023-06-10T07:00:19;15.70;99.90
1948;DHT22;974;52.400;9.818;2023-06-10T07:02:44;15.80;99.90
1948;DHT22;974;52.400;9.818;2023-06-10T07:05:10;15.80;99.90
1948;DHT22;974;52.400;9.818;2023-06-10T07:07:35;15.90;99.90
1948;DHT22;974;52.400;9.818;2023-06-10T07:10:01;16.00;99.90
1948;DHT22;974;52.400;9.818;2023-06-10T07:12:26;16.00;99.90
1948;DHT22;974;52.400;9.818;2023-06-10T07:14:52;16.10;99.90
1948;DHT22;974;52.400;9.818;2023-06-10T07:17:17;16.20;99.90
1948;DHT22;974;52.400;9.818;2023-06-10T07:19:44;16.20;99.90
1948;DHT22;974;52.400;9.818;2023-06-10T07:22:09;16.10;99.90
1948;DHT22;974;52.400;9.818;2023-06-10T07:24:35;16.20;99.90
1948;DHT22;974;52.400;9.818;2023-06-10T07:27:00;16.30;99.90
1948;DHT22;974;52.400;9.818;2023-06-10T07:29:26;16.40;99.90
1948;DHT22;974;52.400;9.818;2023-06-10T07:31:51;16.40;99.90
1948;DHT22;974;52.400;9.818;2023-06-10T07:34:19;16.40;99.90
1948;DHT22;974;52.400;9.818;2023-06-10T07:36:45;16.60;99.90
1948;DHT22;974;52.400;9.818;2023-06-10T07:39:10;16.60;99.90
1948;DHT22;974;52.400;9.818;2023-06-10T07:41:36;16.60;99.90
1948;DHT22;974;52.400;9.818;2023-06-10T07:44:02;16.80;99.90
1948;DHT22;974;52.400;9.818;2023-06-10T07:46:27;16.80;99.90
1948;DHT22;974;52.400;9.818;2023-06-10T07:48:54;16.90;99.90
1948;DHT22;974;52.400;9.818;2023-06-10T07:51:21;17.00;99.90
1948;DHT22;974;52.400;9.818;2023-06-10T07:53:46;17.10;99.90
1948;DHT22;974;52.400;9.818;2023-06-10T07:56:11;17.20;99.90
1948;DHT22;974;52.400;9.818;2023-06-10T07:58:37;17.20;99.90
1948;DHT22;974;52.400;9.818;2023-06-10T08:01:02;17.20;99.90
1948;DHT22;974;52.400;9.818;2023-06-10T08:03:28;17.20;99.90
1948;DHT22;974;52.400;9.818;2023-06-10T08:05:53;17.20;99.90
1948;DHT22;974;52.400;9.818;2023-06-10T08:08:19;17.40;99.90
1948;DHT22;974;52.400;9.818;2023-06-10T08:10:44;17.40;99.90
1948;DHT22;974;52.400;9.818;2023-06-10T08:13:10;17.50;99.90
1948;DHT22;974;52.400;9.818;2023-06-10T08:15:35;17.50;99.90
1948;DHT22;974;52.400;9.818;2023-06-10T08:18:01;17.60;99.90
1948;DHT22;974;52.400;9.818;2023-06-10T08:20:26;17.80;99.90
1948;DHT22;974;52.400;9.818;2023-06-10T08:22:52;17.80;99.90
1948;DHT22;974;52.400;9.818;2023-06-10T08:25:17;17.90;99.90
1948;DHT22;974;52.400;9.818;2023-06-10T08:27:43;17.90;99.90
1948;DHT22;974;52.400;9.818;2023-06-10T08:30:09;18.00;99.90
1948;DHT22;974;52.400;9.818;2023-06-10T08:32:36;18.10;99.90
1948;DHT22;974;52.400;9.818;2023-06-10T08:35:02;18.20;99.90
1948;DHT22;974;52.400;9.818;2023-06-10T08:37:28;18.20;99.90
1948;DHT22;974;52.400;9.818;2023-06-10T08:39:53;18.30;99.90
1948;DHT22;974;52.400;9.818;2023-06-10T08:42:24;18.40;99.90
1948;DHT22;974;52.400;9.818;2023-06-10T08:44:54;18.40;99.90
1948;DHT22;974;52.400;9.818;2023-06-10T08:47:22;18.50;99.90
1948;DHT22;974;52.400;9.818;2023-06-10T08:49:49;18.60;99.90
1948;DHT22;974;52.400;9.818;2023-06-10T08:52:20;18.70;99.90
1948;DHT22;974;52.400;9.818;2023-06-10T08:54:54;18.80;99.90
1948;DHT22;974;52.400;9.818;2023-06-10T08:57:22;18.90;99.90
1948;DHT22;974;52.400;9.818;2023-06-10T08:59:48;19.00;99.90
1948;DHT22;974;52.400;9.818;2023-06-10T09:02:15;19.00;99.90
1948;DHT22;974;52.400;9.818;2023-06-10T09:04:42;19.20;99.90
1948;DHT22;974;52.400;9.818;2023-06-10T09:07:10;19.30;99.90
1948;DHT22;974;52.400;9.818;2023-06-10T09:09:36;19.40;99.90
1948;DHT22;974;52.400;9.818;2023-06-10T09:12:02;19.40;99.90
1948;DHT22;974;52.400;9.818;2023-06-10T09:14:28;19.60;99.90
1948;DHT22;974;52.400;9.818;2023-06-10T09:16:54;19.70;99.90
1948;DHT22;974;52.400;9.818;2023-06-10T09:19:22;19.80;99.90
1948;DHT22;974;52.400;9.818;2023-06-10T09:21:48;19.90;99.90
1948;DHT22;974;52.400;9.818;2023-06-10T09:24:14;20.10;99.90
1948;DHT22;974;52.400;9.818;2023-06-10T09:26:41;20.30;99.90
1948;DHT22;974;52.400;9.818;2023-06-10T09:29:07;20.40;99.90
1948;DHT22;974;52.400;9.818;2023-06-10T09:31:38;20.50;99.90
1948;DHT22;974;52.400;9.818;2023-06-10T09:34:15;20.80;99.90
1948;DHT22;974;52.400;9.818;2023-06-10T09:36:42;20.90;99.90
1948;DHT22;974;52.400;9.818;2023-06-10T09:39:18;21.10;99.90
1948;DHT22;974;52.400;9.818;2023-06-10T09:41:44;21.10;99.90
1948;DHT22;974;52.400;9.818;2023-06-10T09:44:16;21.30;99.90
1948;DHT22;974;52.400;9.818;2023-06-10T09:46:41;21.50;99.90
1948;DHT22;974;52.400;9.818;2023-06-10T09:49:07;21.60;99.90
1948;DHT22;974;52.400;9.818;2023-06-10T09:51:33;21.80;99.90
1948;DHT22;974;52.400;9.818;2023-06-10T09:54:01;22.00;99.90
1948;DHT22;974;52.400;9.818;2023-06-10T09:56:37;22.00;99.90
1948;DHT22;974;52.400;9.818;2023-06-10T09:59:03;22.10;99.90
1948;DHT22;974;52.400;9.818;2023-06-10T10:01:31;22.30;99.90
1948;DHT22;974;52.400;9.818;2023-06-10T10:03:58;22.40;99.90
1948;DHT22;974;52.400;9.818;2023-06-10T10:06:24;22.50;99.90
1948;DHT22;974;52.400;9.818;2023-06-10T10:08:50;22.70;99.90
1948;DHT22;974;52.400;9.818;2023-06-10T10:11:18;22.90;99.90
1948;DHT22;974;52.400;9.818;2023-06-10T10:13:48;22.90;99.90
1948;DHT22;974;52.400;9.818;2023-06-10T10:16:23;23.10;99.90
1948;DHT22;974;52.400;9.818;2023-06-10T10:18:55;23.30;99.90
1948;DHT22;974;52.400;9.818;2023-06-10T10:21:24;23.60;99.90
1948;DHT22;974;52.400;9.818;2023-06-10T10:24:05;23.80;99.90
1948;DHT22;974;52.400;9.818;2023-06-10T10:26:33;23.90;99.90
1948;DHT22;974;52.400;9.818;2023-06-10T10:31:32;24.10;99.90
1948;DHT22;974;52.400;9.818;2023-06-10T10:34:02;24.30;99.90
1948;DHT22;974;52.400;9.818;2023-06-10T10:36:30;24.60;99.90
1948;DHT22;974;52.400;9.818;2023-06-10T10:38:56;24.90;99.90
1948;DHT22;974;52.400;9.818;2023-06-10T10:41:24;25.00;99.90
1948;DHT22;974;52.400;9.818;2023-06-10T10:43:52;25.30;99.90
1948;DHT22;974;52.400;9.818;2023-06-10T10:46:19;25.50;99.90
1948;DHT22;974;52.400;9.818;2023-06-10T10:48:44;25.80;99.90
1948;DHT22;974;52.400;9.818;2023-06-10T10:51:11;25.90;99.90
1948;DHT22;974;52.400;9.818;2023-06-10T10:53:38;26.20;99.90
1948;DHT22;974;52.400;9.818;2023-06-10T10:56:15;27.10;99.90
1948;DHT22;974;52.400;9.818;2023-06-10T10:59:03;28.40;99.90
1948;DHT22;974;52.400;9.818;2023-06-10T11:01:40;29.50;99.90
1948;DHT22;974;52.400;9.818;2023-06-10T11:04:07;31.30;99.90
1948;DHT22;974;52.400;9.818;2023-06-10T11:06:34;32.20;99.30
1948;DHT22;974;52.400;9.818;2023-06-10T11:09:00;33.00;98.00
1948;DHT22;974;52.400;9.818;2023-06-10T11:11:27;34.30;95.90
1948;DHT22;974;52.400;9.818;2023-06-10T11:16:27;35.40;90.80
1948;DHT22;974;52.400;9.818;2023-06-10T11:18:54;36.00;89.30
1948;DHT22;974;52.400;9.818;2023-06-10T11:21:20;36.80;85.10
1948;DHT22;974;52.400;9.818;2023-06-10T11:23:45;36.70;81.80
1948;DHT22;974;52.400;9.818;2023-06-10T11:31:31;35.80;83.80
1948;DHT22;974;52.400;9.818;2023-06-10T11:33:59;37.50;79.90
1948;DHT22;974;52.400;9.818;2023-06-10T11:36:26;38.00;76.30
1948;DHT22;974;52.400;9.818;2023-06-10T11:39:00;37.50;73.00
1948;DHT22;974;52.400;9.818;2023-06-10T11:41:27;36.30;73.90
1948;DHT22;974;52.400;9.818;2023-06-10T11:43:56;35.10;73.60
1948;DHT22;974;52.400;9.818;2023-06-10T11:46:22;34.20;76.00
1948;DHT22;974;52.400;9.818;2023-06-10T11:48:54;33.40;77.70
1948;DHT22;974;52.400;9.818;2023-06-10T11:51:20;32.90;76.90
1948;DHT22;974;52.400;9.818;2023-06-10T11:53:49;32.90;78.50
1948;DHT22;974;52.400;9.818;2023-06-10T11:56:25;32.70;79.10
1948;DHT22;974;52.400;9.818;2023-06-10T11:58:58;32.50;79.40
1948;DHT22;974;52.400;9.818;2023-06-10T12:01:26;32.20;80.90
1948;DHT22;974;52.400;9.818;2023-06-10T12:04:00;32.40;80.60
1948;DHT22;974;52.400;9.818;2023-06-10T12:06:26;32.60;79.10
1948;DHT22;974;52.400;9.818;2023-06-10T12:08:53;32.80;79.60
1948;DHT22;974;52.400;9.818;2023-06-10T12:11:18;32.60;79.20
1948;DHT22;974;52.400;9.818;2023-06-10T12:13:48;32.60;78.60
1948;DHT22;974;52.400;9.818;2023-06-10T12:16:15;32.70;77.30
1948;DHT22;974;52.400;9.818;2023-06-10T12:18:43;32.80;78.40
1948;DHT22;974;52.400;9.818;2023-06-10T12:21:24;32.60;78.10
1948;DHT22;974;52.400;9.818;2023-06-10T12:24:10;32.40;77.30
1948;DHT22;974;52.400;9.818;2023-06-10T12:26:44;32.10;74.60
1948;DHT22;974;52.400;9.818;2023-06-10T12:29:19;32.10;75.80
1948;DHT22;974;52.400;9.818;2023-06-10T12:34:17;32.40;74.50
1948;DHT22;974;52.400;9.818;2023-06-10T12:36:48;32.20;75.50
1948;DHT22;974;52.400;9.818;2023-06-10T12:39:14;32.20;76.10
1948;DHT22;974;52.400;9.818;2023-06-10T12:41:39;32.10;75.30
1948;DHT22;974;52.400;9.818;2023-06-10T12:44:05;32.10;77.10
1948;DHT22;974;52.400;9.818;2023-06-10T12:46:37;32.30;77.40
1948;DHT22;974;52.400;9.818;2023-06-10T12:49:03;32.30;77.80
1948;DHT22;974;52.400;9.818;2023-06-10T12:51:28;31.90;77.20
1948;DHT22;974;52.400;9.818;2023-06-10T12:53:54;32.20;77.90
1948;DHT22;974;52.400;9.818;2023-06-10T12:56:20;32.20;78.40
1948;DHT22;974;52.400;9.818;2023-06-10T12:58:47;32.30;77.00
1948;DHT22;974;52.400;9.818;2023-06-10T13:01:13;32.10;75.00
1948;DHT22;974;52.400;9.818;2023-06-10T13:03:39;32.00;75.90
1948;DHT22;974;52.400;9.818;2023-06-10T13:06:05;31.90;75.60
1948;DHT22;974;52.400;9.818;2023-06-10T13:08:31;32.00;76.60
1948;DHT22;974;52.400;9.818;2023-06-10T13:10:57;32.00;76.20
1948;DHT22;974;52.400;9.818;2023-06-10T13:13:23;32.00;75.50
1948;DHT22;974;52.400;9.818;2023-06-10T13:15:49;32.00;72.40
1948;DHT22;974;52.400;9.818;2023-06-10T13:18:15;32.00;73.00
1948;DHT22;974;52.400;9.818;2023-06-10T13:20:43;31.90;72.80
1948;DHT22;974;52.400;9.818;2023-06-10T13:23:08;31.80;72.00
1948;DHT22;974;52.400;9.818;2023-06-10T13:25:34;31.80;72.10
1948;DHT22;974;52.400;9.818;2023-06-10T13:27:59;31.70;71.80
1948;DHT22;974;52.400;9.818;2023-06-10T13:30:25;31.70;70.80
1948;DHT22;974;52.400;9.818;2023-06-10T13:32:51;31.60;71.00
1948;DHT22;974;52.400;9.818;2023-06-10T13:35:17;31.60;71.10
1948;DHT22;974;52.400;9.818;2023-06-10T13:37:42;31.50;71.70
1948;DHT22;974;52.400;9.818;2023-06-10T13:40:08;31.40;72.00
1948;DHT22;974;52.400;9.818;2023-06-10T13:42:35;31.40;71.00
1948;DHT22;974;52.400;9.818;2023-06-10T13:45:01;31.60;71.60
1948;DHT22;974;52.400;9.818;2023-06-10T13:47:27;31.60;71.60
1948;DHT22;974;52.400;9.818;2023-06-10T13:49:52;31.90;70.00
1948;DHT22;974;52.400;9.818;2023-06-10T13:52:18;32.10;70.60
1948;DHT22;974;52.400;9.818;2023-06-10T13:54:43;31.90;69.40
1948;DHT22;974;52.400;9.818;2023-06-10T13:57:09;31.90;70.60
1948;DHT22;974;52.400;9.818;2023-06-10T13:59:36;31.90;71.40
1948;DHT22;974;52.400;9.818;2023-06-10T14:02:01;31.80;70.50
1948;DHT22;974;52.400;9.818;2023-06-10T14:04:27;31.90;72.20
1948;DHT22;974;52.400;9.818;2023-06-10T14:06:52;32.20;73.00
1948;DHT22;974;52.400;9.818;2023-06-10T14:09:18;32.60;72.40
1948;DHT22;974;52.400;9.818;2023-06-10T14:11:44;33.00;70.40
1948;DHT22;974;52.400;9.818;2023-06-10T14:14:10;33.70;66.30
1948;DHT22;974;52.400;9.818;2023-06-10T14:16:35;34.40;65.60
1948;DHT22;974;52.400;9.818;2023-06-10T14:19:01;34.40;66.70
1948;DHT22;974;52.400;9.818;2023-06-10T14:21:26;33.90;66.90
1948;DHT22;974;52.400;9.818;2023-06-10T14:23:52;33.20;66.90
1948;DHT22;974;52.400;9.818;2023-06-10T14:26:19;32.80;67.60
1948;DHT22;974;52.400;9.818;2023-06-10T14:28:44;32.40;68.10
1948;DHT22;974;52.400;9.818;2023-06-10T14:31:10;32.10;66.80
1948;DHT22;974;52.400;9.818;2023-06-10T14:33:36;31.90;68.40
1948;DHT22;974;52.400;9.818;2023-06-10T14:36:02;31.60;69.70
1948;DHT22;974;52.400;9.818;2023-06-10T14:38:27;31.80;69.30
1948;DHT22;974;52.400;9.818;2023-06-10T14:40:53;31.80;69.20
1948;DHT22;974;52.400;9.818;2023-06-10T14:43:18;31.80;70.30
1948;DHT22;974;52.400;9.818;2023-06-10T14:45:44;31.90;70.20
1948;DHT22;974;52.400;9.818;2023-06-10T14:48:10;31.40;69.70
1948;DHT22;974;52.400;9.818;2023-06-10T14:50:37;31.20;69.90
1948;DHT22;974;52.400;9.818;2023-06-10T14:53:02;31.00;70.80
1948;DHT22;974;52.400;9.818;2023-06-10T14:55:28;30.80;71.00
1948;DHT22;974;52.400;9.818;2023-06-10T14:57:54;30.70;73.10
1948;DHT22;974;52.400;9.818;2023-06-10T15:00:19;30.50;72.30
1948;DHT22;974;52.400;9.818;2023-06-10T15:02:47;30.50;71.70
1948;DHT22;974;52.400;9.818;2023-06-10T15:05:14;30.30;72.20
1948;DHT22;974;52.400;9.818;2023-06-10T15:07:40;30.30;71.90
1948;DHT22;974;52.400;9.818;2023-06-10T15:10:06;30.20;70.40
1948;DHT22;974;52.400;9.818;2023-06-10T15:12:32;30.20;70.30
1948;DHT22;974;52.400;9.818;2023-06-10T15:14:57;30.10;70.20
1948;DHT22;974;52.400;9.818;2023-06-10T15:17:23;30.20;71.50
1948;DHT22;974;52.400;9.818;2023-06-10T15:19:48;30.30;71.00
1948;DHT22;974;52.400;9.818;2023-06-10T15:22:13;30.50;70.90
1948;DHT22;974;52.400;9.818;2023-06-10T15:24:39;30.30;71.60
1948;DHT22;974;52.400;9.818;2023-06-10T15:27:05;30.60;72.70
1948;DHT22;974;52.400;9.818;2023-06-10T15:29:31;30.80;70.80
1948;DHT22;974;52.400;9.818;2023-06-10T15:31:56;31.30;69.30
1948;DHT22;974;52.400;9.818;2023-06-10T15:34:22;31.50;67.80
1948;DHT22;974;52.400;9.818;2023-06-10T15:36:47;31.90;68.00
1948;DHT22;974;52.400;9.818;2023-06-10T15:39:13;32.10;67.60
1948;DHT22;974;52.400;9.818;2023-06-10T15:41:38;32.20;66.20
1948;DHT22;974;52.400;9.818;2023-06-10T15:44:04;32.00;66.60
1948;DHT22;974;52.400;9.818;2023-06-10T15:46:30;31.50;66.80
1948;DHT22;974;52.400;9.818;2023-06-10T15:48:56;31.20;68.20
1948;DHT22;974;52.400;9.818;2023-06-10T15:51:22;31.00;68.80
1948;DHT22;974;52.400;9.818;2023-06-10T15:53:48;31.00;70.00
1948;DHT22;974;52.400;9.818;2023-06-10T15:56:14;30.90;69.20
1948;DHT22;974;52.400;9.818;2023-06-10T15:58:40;30.80;70.00
1948;DHT22;974;52.400;9.818;2023-06-10T16:01:05;30.90;69.50
1948;DHT22;974;52.400;9.818;2023-06-10T16:03:32;30.90;68.10
1948;DHT22;974;52.400;9.818;2023-06-10T16:05:57;30.90;68.30
1948;DHT22;974;52.400;9.818;2023-06-10T16:08:23;30.60;67.50
1948;DHT22;974;52.400;9.818;2023-06-10T16:10:48;30.50;67.60
1948;DHT22;974;52.400;9.818;2023-06-10T16:13:14;30.60;68.20
1948;DHT22;974;52.400;9.818;2023-06-10T16:15:39;30.50;68.60
1948;DHT22;974;52.400;9.818;2023-06-10T16:18:05;30.40;68.50
1948;DHT22;974;52.400;9.818;2023-06-10T16:20:30;30.30;68.00
1948;DHT22;974;52.400;9.818;2023-06-10T16:22:56;30.30;68.60
1948;DHT22;974;52.400;9.818;2023-06-10T16:25:21;30.00;69.90